Keaau, Hawaii
Current Conditions -  °F | °C
As of 5:53 AM on Sunday 21 Dec 2014 (Local Time) from PHTO Reporting Station
Broken Clouds Broken Clouds  
Wind Chill: 67°   Ceiling: 7500
Heat Index: 67°   Visibility: 10mi
Dew Point: 55°   Wind: 9mph
Humidity: 66%   Direction: 230°SW
Pressure: 30.04"   Gusts: NA
Location:  19.62°N, 155.02°W
Report Text: PHTO 211553Z 23008KT 10SM FEW030 SCT050 BKN075 19/13 A3004 RMK AO2 SLP170 T01940128 $
Loading
Personal Weather Stations






























Interactive Weather Map New forecast layout! Learn more

10-Day Weather Forecast

Advertisements
Track Severe Weather on mobile